createdAt,value
2022-12-18T00:01:31.056Z,80.85
2022-12-18T00:03:44.909Z,80.76
2022-12-18T00:05:59.287Z,80.76
2022-12-18T00:08:12.607Z,80.68
2022-12-18T00:10:25.871Z,80.83
2022-12-18T00:12:39.135Z,80.87
2022-12-18T00:14:52.306Z,81.11
2022-12-18T00:17:05.630Z,81.35
2022-12-18T00:19:19.886Z,81.47
2022-12-18T00:21:34.607Z,81.52
2022-12-18T00:23:48.781Z,81.55
2022-12-18T00:26:03.411Z,81.39
2022-12-18T00:28:17.405Z,81.53
2022-12-18T00:30:30.753Z,81.53
2022-12-18T00:32:44.135Z,81.47
2022-12-18T00:34:57.408Z,81.44
2022-12-18T00:37:13.450Z,81.40
2022-12-18T00:39:30.038Z,81.79
2022-12-18T00:41:59.668Z,82.15
2022-12-18T00:44:14.829Z,82.00
2022-12-18T00:46:28.037Z,82.34
2022-12-18T00:48:41.236Z,82.84
2022-12-18T00:50:55.324Z,82.76
2022-12-18T00:53:08.552Z,82.95
2022-12-18T00:55:22.279Z,83.34
2022-12-18T00:57:35.590Z,83.50
2022-12-18T00:59:49.615Z,83.50
2022-12-18T01:02:04.992Z,83.53
2022-12-18T01:04:18.535Z,83.94
2022-12-18T01:06:32.263Z,84.02
2022-12-18T01:08:46.541Z,84.20
2022-12-18T01:10:59.983Z,84.26
2022-12-18T01:13:13.375Z,84.33
2022-12-18T01:15:26.802Z,84.40
2022-12-18T01:17:40.351Z,84.36
2022-12-18T01:19:53.859Z,84.47
2022-12-18T01:22:07.410Z,84.33
2022-12-18T01:24:21.162Z,84.32
2022-12-18T01:26:35.749Z,84.15
2022-12-18T01:28:49.322Z,84.17
2022-12-18T01:31:13.282Z,84.13
2022-12-18T01:33:26.605Z,84.04
2022-12-18T01:35:44.194Z,83.95
2022-12-18T01:38:01.370Z,83.88
2022-12-18T01:40:17.514Z,83.82
2022-12-18T01:42:30.955Z,83.77
2022-12-18T01:45:26.657Z,83.70
2022-12-18T01:47:43.582Z,83.61
2022-12-18T01:49:59.817Z,83.63
2022-12-18T01:52:13.270Z,83.62
2022-12-18T01:54:26.627Z,83.48
2022-12-18T01:56:41.130Z,83.48
2022-12-18T01:59:05.999Z,83.64
2022-12-18T02:01:19.905Z,83.86
2022-12-18T02:03:33.200Z,83.94
2022-12-18T02:05:52.261Z,84.02
2022-12-18T02:08:13.608Z,84.20
2022-12-18T02:10:33.148Z,84.03
2022-12-18T02:12:51.937Z,84.25
2022-12-18T02:15:10.708Z,84.51
2022-12-18T02:17:28.962Z,84.76
2022-12-18T02:19:57.539Z,84.97
2022-12-18T02:22:21.143Z,85.21
2022-12-18T02:24:44.851Z,85.62
2022-12-18T02:27:02.989Z,85.99
2022-12-18T02:29:21.033Z,86.43
2022-12-18T02:31:39.110Z,86.53
2022-12-18T02:33:59.815Z,86.42
2022-12-18T02:36:17.828Z,86.24
2022-12-18T02:38:34.093Z,86.19
2022-12-18T02:40:53.286Z,86.04
2022-12-18T02:43:14.844Z,85.83
2022-12-18T02:45:28.672Z,85.86
2022-12-18T02:47:46.651Z,85.92
2022-12-18T02:50:12.208Z,85.96
2022-12-18T02:52:36.234Z,85.94
2022-12-18T02:55:10.442Z,86.15
2022-12-18T02:57:38.177Z,86.29
2022-12-18T03:00:01.030Z,86.33
2022-12-18T03:02:26.823Z,86.38
2022-12-18T03:04:45.895Z,86.47
2022-12-18T03:07:04.455Z,86.39
2022-12-18T03:09:23.431Z,86.20
2022-12-18T03:11:55.552Z,85.92
2022-12-18T03:14:10.717Z,86.08
2022-12-18T03:16:28.950Z,86.18
2022-12-18T03:18:46.982Z,86.06
2022-12-18T03:21:06.873Z,86.05
2022-12-18T03:23:26.387Z,86.05
2022-12-18T03:25:44.039Z,85.96
2022-12-18T03:28:01.001Z,85.98
2022-12-18T03:30:18.245Z,86.20
2022-12-18T03:32:37.815Z,86.35
2022-12-18T03:34:53.704Z,86.54
2022-12-18T03:37:08.562Z,86.60
2022-12-18T03:39:23.670Z,86.63
2022-12-18T03:41:47.681Z,86.83
2022-12-18T03:44:19.636Z,86.91
2022-12-18T03:46:38.121Z,87.00
2022-12-18T03:49:03.034Z,86.90
2022-12-18T03:51:22.375Z,87.03
2022-12-18T03:53:44.419Z,87.02
2022-12-18T03:56:00.455Z,87.00
2022-12-18T03:58:22.353Z,87.09
2022-12-18T04:01:01.118Z,87.20
2022-12-18T04:03:16.729Z,87.73
2022-12-18T04:05:35.928Z,87.46
2022-12-18T04:07:51.562Z,87.68
2022-12-18T04:10:06.782Z,87.78
2022-12-18T04:12:21.738Z,87.73
2022-12-18T04:14:37.789Z,87.76
2022-12-18T04:16:51.596Z,87.71
2022-12-18T04:19:07.780Z,87.80
2022-12-18T04:21:25.443Z,87.92
2022-12-18T04:23:39.312Z,88.06
2022-12-18T04:25:54.121Z,88.10
2022-12-18T04:28:22.459Z,88.15
2022-12-18T04:30:35.867Z,88.12
2022-12-18T04:32:52.143Z,88.31
2022-12-18T04:35:06.397Z,88.33
2022-12-18T04:37:20.078Z,88.49
2022-12-18T04:39:34.337Z,88.49
2022-12-18T04:41:51.971Z,88.54
2022-12-18T04:44:05.698Z,88.43
2022-12-18T04:46:19.058Z,88.67
2022-12-18T04:48:32.271Z,88.68
2022-12-18T04:50:49.555Z,88.78
2022-12-18T04:53:02.988Z,88.83
2022-12-18T04:55:16.787Z,88.75
2022-12-18T04:57:30.144Z,88.86
2022-12-18T04:59:43.441Z,89.01
2022-12-18T05:01:56.896Z,89.04
2022-12-18T05:04:10.728Z,89.24
2022-12-18T05:06:23.952Z,89.20
2022-12-18T05:08:37.594Z,89.26
2022-12-18T05:10:51.225Z,89.20
2022-12-18T05:13:04.542Z,89.25
2022-12-18T05:15:18.445Z,89.17
2022-12-18T05:17:31.841Z,89.14
2022-12-18T05:19:45.200Z,89.08
2022-12-18T05:21:58.515Z,89.12
2022-12-18T05:24:12.630Z,89.07
2022-12-18T05:26:26.138Z,89.14
2022-12-18T05:28:41.109Z,89.16
2022-12-18T05:30:57.634Z,89.11
2022-12-18T05:33:11.144Z,89.20
2022-12-18T05:35:24.718Z,89.24
2022-12-18T05:37:42.654Z,89.22
2022-12-18T05:39:56.665Z,89.30
2022-12-18T05:42:10.068Z,89.44
2022-12-18T05:44:23.340Z,89.60
2022-12-18T05:46:36.770Z,89.64
2022-12-18T05:48:52.484Z,89.79
2022-12-18T05:51:11.820Z,90.30
2022-12-18T05:53:25.456Z,90.20
2022-12-18T05:55:40.511Z,90.23
2022-12-18T05:57:53.792Z,90.56
2022-12-18T06:00:07.256Z,90.46
2022-12-18T06:02:25.203Z,90.31
2022-12-18T06:04:39.012Z,90.48
2022-12-18T06:06:53.183Z,90.59
2022-12-18T06:09:10.565Z,90.31
2022-12-18T06:11:26.274Z,90.45
2022-12-18T06:13:39.865Z,90.48
2022-12-18T06:15:53.197Z,90.42
2022-12-18T06:18:07.801Z,90.71
2022-12-18T06:20:21.377Z,90.83
2022-12-18T06:22:34.991Z,90.80
2022-12-18T06:24:48.273Z,90.61
2022-12-18T06:27:01.549Z,90.51
2022-12-18T06:29:14.916Z,90.35
2022-12-18T06:31:28.266Z,90.25
2022-12-18T06:33:43.025Z,90.23
2022-12-18T06:36:00.918Z,90.41
2022-12-18T06:38:14.683Z,90.36
2022-12-18T06:40:28.112Z,90.20
2022-12-18T06:42:41.563Z,90.42
2022-12-18T06:44:54.992Z,90.36
2022-12-18T06:47:08.370Z,90.39
2022-12-18T06:49:24.125Z,90.41
2022-12-18T06:51:39.362Z,90.40
2022-12-18T06:53:52.619Z,90.62
2022-12-18T06:56:11.176Z,90.64
2022-12-18T06:58:24.616Z,90.66
2022-12-18T07:00:37.941Z,90.52
2022-12-18T07:02:51.695Z,90.60
2022-12-18T07:05:10.516Z,90.74
2022-12-18T07:07:24.288Z,90.73
2022-12-18T07:09:37.791Z,90.78
2022-12-18T07:11:51.060Z,90.78
2022-12-18T07:14:06.727Z,90.60
2022-12-18T07:16:25.236Z,90.65
2022-12-18T07:18:38.838Z,90.65
2022-12-18T07:20:52.184Z,90.58
2022-12-18T07:23:05.885Z,90.38
2022-12-18T07:25:19.219Z,90.09
2022-12-18T07:27:32.430Z,89.99
2022-12-18T07:29:45.823Z,89.80
2022-12-18T07:31:59.094Z,89.96
2022-12-18T07:34:14.092Z,89.93
2022-12-18T07:36:30.342Z,89.79
2022-12-18T07:38:43.937Z,89.87
2022-12-18T07:40:57.091Z,89.99
2022-12-18T07:43:10.368Z,90.01
2022-12-18T07:45:23.788Z,90.04
2022-12-18T07:47:38.508Z,89.95
2022-12-18T07:49:51.715Z,90.06
2022-12-18T07:52:05.569Z,90.22
2022-12-18T07:54:18.897Z,90.29
2022-12-18T07:56:32.258Z,90.37
2022-12-18T07:58:46.403Z,90.24
2022-12-18T08:01:06.218Z,90.27
2022-12-18T08:03:21.000Z,90.23
2022-12-18T08:05:36.028Z,90.22
2022-12-18T08:07:49.790Z,90.32
2022-12-18T08:10:03.249Z,90.37
2022-12-18T08:12:17.441Z,90.39
2022-12-18T08:14:30.732Z,90.41
2022-12-18T08:16:44.141Z,90.48
2022-12-18T08:18:58.979Z,90.52
2022-12-18T08:21:23.299Z,90.54
2022-12-18T08:23:42.093Z,90.64
2022-12-18T08:25:56.195Z,90.68
2022-12-18T08:28:09.485Z,90.64
2022-12-18T08:30:23.080Z,90.75
2022-12-18T08:32:36.995Z,90.99
2022-12-18T08:34:50.542Z,91.00
2022-12-18T08:37:03.819Z,91.04
2022-12-18T08:39:17.121Z,91.23
2022-12-18T08:41:30.545Z,91.50
2022-12-18T08:44:01.465Z,91.39
2022-12-18T08:46:15.803Z,91.40
2022-12-18T08:48:29.226Z,91.26
2022-12-18T08:50:42.606Z,91.28
2022-12-18T08:52:55.855Z,91.11
2022-12-18T08:55:09.771Z,91.12
2022-12-18T08:57:22.921Z,91.15
2022-12-18T08:59:36.241Z,91.08
2022-12-18T09:01:50.051Z,91.29
2022-12-18T09:04:03.347Z,91.36
2022-12-18T09:06:21.125Z,91.41
2022-12-18T09:08:34.502Z,91.56
2022-12-18T09:10:51.446Z,91.38
2022-12-18T09:13:05.097Z,91.17
2022-12-18T09:15:18.955Z,91.41
2022-12-18T09:17:32.355Z,91.12
2022-12-18T09:19:45.749Z,90.88
2022-12-18T09:21:59.253Z,90.91
2022-12-18T09:24:16.406Z,91.01
2022-12-18T09:26:30.774Z,90.83
2022-12-18T09:28:44.145Z,90.60
2022-12-18T09:30:57.644Z,90.72
2022-12-18T09:33:10.911Z,90.87
2022-12-18T09:35:24.357Z,90.81
2022-12-18T09:37:37.535Z,91.00
2022-12-18T09:39:50.885Z,91.13
2022-12-18T09:42:04.901Z,91.23
2022-12-18T09:44:27.024Z,91.10
2022-12-18T09:46:44.999Z,91.19
2022-12-18T09:49:00.411Z,91.19
2022-12-18T09:51:21.874Z,91.00
2022-12-18T09:53:40.420Z,91.02
2022-12-18T09:55:55.754Z,90.99
2022-12-18T09:58:19.952Z,91.03
2022-12-18T10:00:33.204Z,91.06
2022-12-18T10:02:46.472Z,91.23
2022-12-18T10:05:12.760Z,91.26
2022-12-18T10:07:34.176Z,91.57
2022-12-18T10:09:53.173Z,92.04
2022-12-18T10:12:21.179Z,91.84
2022-12-18T10:14:40.011Z,92.24
2022-12-18T10:17:06.897Z,92.48
2022-12-18T10:19:30.894Z,92.25
2022-12-18T10:21:50.375Z,92.26
2022-12-18T10:24:13.390Z,92.19
2022-12-18T10:26:26.820Z,92.16
2022-12-18T10:28:41.588Z,92.19
2022-12-18T10:30:55.306Z,92.12
2022-12-18T10:33:10.572Z,91.70
2022-12-18T10:35:26.457Z,91.53
2022-12-18T10:37:39.850Z,91.54
2022-12-18T10:40:10.534Z,91.58
2022-12-18T10:42:27.025Z,91.79
2022-12-18T10:44:40.726Z,91.82
2022-12-18T10:46:58.959Z,91.79
2022-12-18T10:49:23.314Z,91.78
2022-12-18T10:51:38.633Z,91.78
2022-12-18T10:54:01.660Z,91.68
2022-12-18T10:56:16.835Z,91.91
2022-12-18T10:58:32.249Z,92.13
2022-12-18T11:00:46.043Z,92.78
2022-12-18T11:02:59.886Z,92.99
2022-12-18T11:05:31.882Z,92.31
2022-12-18T11:08:01.552Z,92.43
2022-12-18T11:10:23.945Z,92.51
2022-12-18T11:12:37.891Z,92.64
2022-12-18T11:14:55.303Z,92.49
2022-12-18T11:17:25.264Z,92.61
2022-12-18T11:19:41.970Z,92.51
2022-12-18T11:21:55.426Z,92.56
2022-12-18T11:24:09.834Z,92.59
2022-12-18T11:26:24.134Z,92.50
2022-12-18T11:28:44.432Z,92.38
2022-12-18T11:31:26.126Z,92.39
2022-12-18T11:33:49.485Z,92.49
2022-12-18T11:36:16.123Z,92.49
2022-12-18T11:38:31.482Z,92.58
2022-12-18T11:40:46.705Z,92.68
2022-12-18T11:43:04.317Z,92.37
2022-12-18T11:45:33.257Z,92.36
2022-12-18T11:47:54.591Z,92.34
2022-12-18T11:50:16.131Z,92.41
2022-12-18T11:52:33.117Z,91.88
2022-12-18T11:54:46.387Z,91.80
2022-12-18T11:57:06.657Z,92.14
2022-12-18T11:59:33.670Z,92.13
2022-12-18T12:01:55.032Z,92.40
2022-12-18T12:04:39.747Z,92.41
2022-12-18T12:07:03.545Z,92.36
2022-12-18T12:09:25.222Z,92.16
2022-12-18T12:11:46.273Z,92.31
2022-12-18T12:14:10.308Z,92.58
2022-12-18T12:16:32.025Z,92.64
2022-12-18T12:18:58.968Z,92.53
2022-12-18T12:21:19.698Z,92.67
2022-12-18T12:23:45.975Z,92.81
2022-12-18T12:26:06.972Z,92.71
2022-12-18T12:28:32.904Z,92.29
2022-12-18T12:30:55.131Z,92.19
2022-12-18T12:33:27.017Z,92.25
2022-12-18T12:35:56.733Z,92.34
2022-12-18T12:38:16.080Z,92.30
2022-12-18T12:43:18.998Z,92.63
2022-12-18T12:45:47.402Z,92.80
2022-12-18T12:48:02.212Z,92.82
2022-12-18T12:50:21.928Z,92.79
2022-12-18T12:52:40.257Z,92.82
2022-12-18T12:54:55.513Z,92.75
2022-12-18T12:57:15.228Z,92.73
2022-12-18T12:59:38.897Z,92.50
2022-12-18T13:01:59.095Z,92.38
2022-12-18T13:04:25.206Z,92.37
2022-12-18T13:06:52.512Z,92.68
2022-12-18T13:09:06.591Z,92.64
2022-12-18T13:11:59.753Z,92.56
2022-12-18T13:14:29.706Z,92.40
2022-12-18T13:16:46.409Z,92.45
2022-12-18T13:19:01.175Z,92.01
2022-12-18T13:21:25.568Z,91.92
2022-12-18T13:23:42.395Z,91.63
2022-12-18T13:25:56.815Z,91.46
2022-12-18T13:28:19.589Z,91.59
2022-12-18T13:30:58.412Z,91.60
2022-12-18T13:34:09.506Z,91.57
2022-12-18T13:36:35.086Z,91.60
2022-12-18T13:38:49.771Z,91.52
2022-12-18T13:41:04.256Z,91.50
2022-12-18T13:43:32.089Z,91.42
2022-12-18T13:45:50.062Z,91.23
2022-12-18T13:48:03.456Z,91.23
2022-12-18T13:50:35.410Z,91.12
2022-12-18T13:52:50.650Z,91.06
2022-12-18T13:55:05.777Z,90.82
2022-12-18T13:57:33.200Z,90.74
2022-12-18T13:59:47.320Z,90.51
2022-12-18T14:02:02.912Z,90.35
2022-12-18T14:04:23.205Z,90.00
2022-12-18T14:06:36.506Z,89.59
2022-12-18T14:08:52.422Z,89.48
2022-12-18T14:11:06.999Z,89.46
2022-12-18T14:13:25.752Z,89.25
2022-12-18T14:15:41.486Z,89.55
2022-12-18T14:17:55.131Z,89.39
2022-12-18T14:20:08.720Z,88.68
2022-12-18T14:22:29.815Z,89.02
2022-12-18T14:24:43.245Z,88.71
2022-12-18T14:26:57.108Z,88.48
2022-12-18T14:29:30.521Z,88.27
2022-12-18T14:31:44.052Z,88.23
2022-12-18T14:33:58.791Z,88.28
2022-12-18T14:36:19.750Z,88.05
2022-12-18T14:38:36.632Z,87.92
2022-12-18T14:40:50.362Z,87.86
2022-12-18T14:43:03.754Z,87.85
2022-12-18T14:45:42.655Z,87.94
2022-12-18T14:47:56.455Z,87.82
2022-12-18T14:50:16.912Z,87.87
2022-12-18T14:52:36.071Z,87.73
2022-12-18T14:54:53.188Z,87.88
2022-12-18T14:57:08.988Z,87.88
2022-12-18T14:59:25.178Z,87.95
2022-12-18T15:01:41.958Z,88.19
2022-12-18T15:03:55.756Z,88.26
2022-12-18T15:06:29.477Z,88.41
2022-12-18T15:08:44.371Z,88.59
2022-12-18T15:10:58.749Z,88.85
2022-12-18T15:13:28.584Z,89.08
2022-12-18T15:15:55.374Z,89.19
2022-12-18T15:18:16.204Z,89.43
2022-12-18T15:20:29.596Z,89.74
2022-12-18T15:22:43.317Z,89.76
2022-12-18T15:24:57.252Z,89.65
2022-12-18T15:27:23.712Z,89.85
2022-12-18T15:29:37.977Z,89.63
2022-12-18T15:32:02.222Z,89.41
2022-12-18T15:34:23.835Z,89.26
2022-12-18T15:36:38.627Z,89.30
2022-12-18T15:38:56.231Z,89.23
2022-12-18T15:41:24.760Z,89.20
2022-12-18T15:43:42.414Z,89.03
2022-12-18T15:45:56.116Z,88.66
2022-12-18T15:48:25.856Z,88.74
2022-12-18T15:50:39.126Z,88.45
2022-12-18T15:52:54.400Z,88.23
2022-12-18T15:55:24.421Z,88.88
2022-12-18T15:57:37.638Z,88.89
2022-12-18T15:59:50.828Z,88.87
2022-12-18T16:02:04.320Z,88.65
2022-12-18T16:04:19.992Z,88.57
2022-12-18T16:06:51.019Z,88.50
2022-12-18T16:09:07.544Z,88.39
2022-12-18T16:11:40.049Z,88.55
2022-12-18T16:13:53.162Z,88.71
2022-12-18T16:16:06.924Z,88.92
2022-12-18T16:18:20.546Z,88.94
2022-12-18T16:20:33.817Z,89.02
2022-12-18T16:22:48.294Z,89.12
2022-12-18T16:25:02.144Z,89.28
2022-12-18T16:27:15.634Z,89.35
2022-12-18T16:29:31.365Z,89.39
2022-12-18T16:31:44.790Z,89.55
2022-12-18T16:34:17.084Z,89.63
2022-12-18T16:36:30.527Z,89.65
2022-12-18T16:38:44.017Z,89.77
2022-12-18T16:41:15.933Z,89.73
2022-12-18T16:43:29.112Z,89.79
2022-12-18T16:45:42.316Z,89.81
2022-12-18T16:47:55.517Z,89.86
2022-12-18T16:50:09.381Z,89.93
2022-12-18T16:52:23.016Z,90.07
2022-12-18T16:54:37.930Z,90.14
2022-12-18T16:56:51.781Z,90.19
2022-12-18T16:59:06.401Z,90.20
2022-12-18T17:01:19.564Z,90.19
2022-12-18T17:03:33.062Z,90.34
2022-12-18T17:05:51.499Z,90.34
2022-12-18T17:08:06.419Z,89.88
2022-12-18T17:10:19.802Z,89.54
2022-12-18T17:12:33.231Z,89.55
2022-12-18T17:14:46.875Z,89.37
2022-12-18T17:17:20.784Z,88.95
2022-12-18T17:19:34.576Z,88.86
2022-12-18T17:21:48.203Z,89.04
2022-12-18T17:24:02.924Z,88.90
2022-12-18T17:26:16.695Z,88.85
2022-12-18T17:28:30.818Z,88.89
2022-12-18T17:30:44.057Z,88.92
2022-12-18T17:32:57.519Z,88.93
2022-12-18T17:35:11.934Z,88.80
2022-12-18T17:37:26.720Z,88.76
2022-12-18T17:39:40.176Z,88.76
2022-12-18T17:41:53.952Z,88.59
2022-12-18T17:44:08.863Z,88.56
2022-12-18T17:46:22.671Z,88.58
2022-12-18T17:48:36.183Z,88.26
2022-12-18T17:50:52.572Z,88.23
2022-12-18T17:53:06.288Z,88.00
2022-12-18T17:55:19.526Z,88.05
2022-12-18T17:57:32.826Z,88.17
2022-12-18T17:59:46.049Z,88.24
2022-12-18T18:01:59.336Z,88.18
2022-12-18T18:04:12.974Z,88.22
2022-12-18T18:06:26.584Z,88.25
2022-12-18T18:08:41.106Z,88.17
2022-12-18T18:10:54.804Z,88.29
2022-12-18T18:13:24.804Z,88.42
2022-12-18T18:15:38.006Z,88.60
2022-12-18T18:17:53.012Z,88.60
2022-12-18T18:20:07.266Z,88.59
2022-12-18T18:22:21.839Z,88.39
2022-12-18T18:24:36.600Z,88.30
2022-12-18T18:26:50.385Z,87.92
2022-12-18T18:29:04.853Z,86.72
2022-12-18T18:31:19.522Z,86.45
2022-12-18T18:33:32.932Z,86.34
2022-12-18T18:35:54.459Z,86.23
2022-12-18T18:38:08.020Z,85.03
2022-12-18T18:40:22.447Z,85.22
2022-12-18T18:42:36.262Z,85.07
2022-12-18T18:44:49.553Z,84.75
2022-12-18T18:47:03.580Z,84.34
2022-12-18T18:49:19.894Z,83.86
2022-12-18T18:51:35.041Z,82.95
2022-12-18T18:53:51.175Z,82.76
2022-12-18T18:56:50.245Z,82.19
2022-12-18T18:58:40.226Z,81.97
2022-12-18T19:01:01.429Z,81.85
2022-12-18T19:03:14.971Z,82.08
2022-12-18T19:05:28.762Z,82.13
2022-12-18T19:07:42.618Z,81.66
2022-12-18T19:09:56.143Z,81.69
2022-12-18T19:12:26.670Z,81.97
2022-12-18T19:14:39.975Z,82.12
2022-12-18T19:16:53.077Z,82.28
2022-12-18T19:19:06.725Z,82.30
2022-12-18T19:21:20.253Z,82.54
2022-12-18T19:23:33.810Z,82.66
2022-12-18T19:25:47.108Z,82.34
2022-12-18T19:28:00.300Z,82.06
2022-12-18T19:30:16.343Z,81.64
2022-12-18T19:32:29.662Z,82.05
2022-12-18T19:34:43.206Z,81.23
2022-12-18T19:36:59.849Z,81.11
2022-12-18T19:39:17.811Z,80.93
2022-12-18T19:41:33.982Z,80.59
2022-12-18T19:43:48.976Z,80.36
2022-12-18T19:46:03.073Z,80.34
2022-12-18T19:48:16.858Z,80.59
2022-12-18T19:50:30.122Z,80.61
2022-12-18T19:52:45.990Z,80.41
2022-12-18T19:54:59.276Z,80.42
2022-12-18T19:57:14.464Z,80.38
2022-12-18T19:59:27.703Z,80.58
2022-12-18T20:01:41.271Z,80.57
2022-12-18T20:03:55.978Z,80.52
2022-12-18T20:06:18.812Z,80.61
2022-12-18T20:08:32.739Z,80.45
2022-12-18T20:10:49.974Z,80.37
2022-12-18T20:13:03.258Z,80.36
2022-12-18T20:15:17.684Z,79.59
2022-12-18T20:17:30.862Z,79.62
2022-12-18T20:19:44.660Z,79.29
2022-12-18T20:21:58.748Z,79.13
2022-12-18T20:24:13.603Z,79.37
2022-12-18T20:26:27.223Z,79.13
2022-12-18T20:28:40.807Z,79.20
2022-12-18T20:30:54.953Z,79.87
2022-12-18T20:33:08.649Z,80.31
2022-12-18T20:35:22.138Z,80.64
2022-12-18T20:37:35.462Z,80.64
2022-12-18T20:39:52.889Z,81.18
2022-12-18T20:42:06.147Z,81.12
2022-12-18T20:44:24.076Z,80.97
2022-12-18T20:46:37.539Z,80.93
2022-12-18T20:48:51.026Z,80.42
2022-12-18T20:51:09.467Z,80.65
2022-12-18T20:53:22.741Z,81.09
2022-12-18T20:55:36.011Z,80.55
2022-12-18T20:57:49.427Z,80.81
2022-12-18T21:00:02.695Z,80.60
2022-12-18T21:02:19.668Z,80.43
2022-12-18T21:04:33.198Z,80.41
2022-12-18T21:06:51.449Z,79.82
2022-12-18T21:09:05.524Z,80.14
2022-12-18T21:11:45.752Z,79.99
2022-12-18T21:13:58.917Z,79.51
2022-12-18T21:16:12.632Z,79.75
2022-12-18T21:18:25.912Z,80.09
2022-12-18T21:20:39.402Z,80.50
2022-12-18T21:22:52.953Z,80.72
2022-12-18T21:25:10.416Z,80.77
2022-12-18T21:27:23.734Z,80.24
2022-12-18T21:29:37.222Z,80.36
2022-12-18T21:31:51.189Z,80.18
2022-12-18T21:34:04.552Z,79.66
2022-12-18T21:36:18.265Z,79.58
2022-12-18T21:38:33.989Z,78.75
2022-12-18T21:40:47.486Z,77.43
2022-12-18T21:43:17.908Z,77.29
2022-12-18T21:45:31.196Z,76.54
2022-12-18T21:47:44.492Z,75.89
2022-12-18T21:49:58.247Z,75.74
2022-12-18T21:52:11.634Z,76.08
2022-12-18T21:54:25.726Z,76.47
2022-12-18T21:56:52.329Z,76.06
2022-12-18T21:59:05.832Z,76.36
2022-12-18T22:01:19.457Z,76.32
2022-12-18T22:03:32.954Z,76.71
2022-12-18T22:05:46.603Z,76.92
2022-12-18T22:08:02.884Z,77.60
2022-12-18T22:10:16.727Z,78.60
2022-12-18T22:12:44.080Z,79.10
2022-12-18T22:14:58.899Z,78.89
2022-12-18T22:17:12.286Z,79.08
2022-12-18T22:19:27.355Z,79.02
2022-12-18T22:21:41.936Z,79.15
2022-12-18T22:24:01.198Z,79.06
2022-12-18T22:26:15.153Z,79.14
2022-12-18T22:28:45.110Z,79.30
2022-12-18T22:30:59.632Z,79.09
2022-12-18T22:33:13.168Z,79.18
2022-12-18T22:35:26.521Z,79.63
2022-12-18T22:37:39.902Z,79.26
2022-12-18T22:39:53.566Z,78.69
2022-12-18T22:42:06.888Z,78.79
2022-12-18T22:44:20.583Z,78.69
2022-12-18T22:46:37.269Z,78.65
2022-12-18T22:48:50.516Z,77.99
2022-12-18T22:51:03.824Z,76.92
2022-12-18T22:53:17.175Z,76.30
2022-12-18T22:55:30.471Z,76.22
2022-12-18T22:57:48.750Z,76.64
2022-12-18T23:00:02.937Z,78.13
2022-12-18T23:02:16.332Z,78.03
2022-12-18T23:04:36.055Z,77.98
2022-12-18T23:06:50.684Z,77.72
2022-12-18T23:09:04.481Z,77.17
2022-12-18T23:11:19.187Z,77.70
2022-12-18T23:13:32.887Z,77.50
2022-12-18T23:15:49.367Z,77.42
2022-12-18T23:18:03.137Z,76.78
2022-12-18T23:20:17.593Z,76.81
2022-12-18T23:22:32.945Z,77.01
2022-12-18T23:24:46.380Z,76.83
2022-12-18T23:26:59.883Z,76.22
2022-12-18T23:29:13.544Z,76.45
2022-12-18T23:31:28.436Z,76.54
2022-12-18T23:33:41.902Z,76.61
2022-12-18T23:35:55.298Z,76.62
2022-12-18T23:38:08.700Z,76.49
2022-12-18T23:40:22.284Z,76.47
2022-12-18T23:42:35.669Z,76.40
2022-12-18T23:44:49.057Z,76.53
2022-12-18T23:47:02.368Z,76.63
2022-12-18T23:49:15.736Z,77.04
2022-12-18T23:51:29.650Z,77.16
2022-12-18T23:53:44.262Z,77.34
2022-12-18T23:55:57.727Z,76.99
2022-12-18T23:58:18.843Z,76.58
